createdAt,value
2019-03-27T00:01:17.240Z,93.80
2019-03-27T00:03:46.826Z,93.70
2019-03-27T00:06:17.397Z,93.70
2019-03-27T00:08:47.009Z,93.60
2019-03-27T00:11:16.624Z,93.60
2019-03-27T00:13:46.424Z,93.60
2019-03-27T00:16:16.001Z,93.60
2019-03-27T00:18:45.861Z,93.70
2019-03-27T00:21:15.481Z,93.60
2019-03-27T00:23:45.443Z,93.60
2019-03-27T00:26:15.352Z,93.70
2019-03-27T00:28:45.116Z,93.60
2019-03-27T00:31:14.951Z,93.60
2019-03-27T00:33:44.555Z,93.50
2019-03-27T00:36:14.601Z,93.50
2019-03-27T00:38:44.363Z,93.50
2019-03-27T00:41:14.245Z,93.50
2019-03-27T00:43:43.822Z,93.50
2019-03-27T00:46:13.358Z,93.60
2019-03-27T00:48:43.085Z,93.60
2019-03-27T00:51:12.992Z,93.60
2019-03-27T00:53:42.805Z,93.60
2019-03-27T00:56:12.716Z,93.70
2019-03-27T00:58:42.130Z,93.70
2019-03-27T01:01:13.824Z,93.70
2019-03-27T01:03:43.388Z,93.70
2019-03-27T01:06:13.447Z,93.80
2019-03-27T01:08:43.308Z,93.80
2019-03-27T01:11:13.140Z,93.80
2019-03-27T01:13:43.043Z,93.80
2019-03-27T01:16:12.598Z,93.80
2019-03-27T01:18:42.160Z,93.80
2019-03-27T01:21:12.069Z,93.90
2019-03-27T01:23:41.659Z,93.90
2019-03-27T01:26:11.200Z,94.00
2019-03-27T01:28:40.954Z,94.00
2019-03-27T01:31:10.463Z,93.90
2019-03-27T01:33:40.348Z,94.00
2019-03-27T01:36:10.485Z,94.10
2019-03-27T01:38:40.625Z,94.10
2019-03-27T01:41:10.461Z,94.10
2019-03-27T01:43:39.960Z,94.10
2019-03-27T01:46:09.772Z,94.20
2019-03-27T01:48:39.353Z,94.20
2019-03-27T01:51:09.471Z,94.30
2019-03-27T01:53:39.302Z,94.40
2019-03-27T01:56:08.854Z,94.40
2019-03-27T01:58:38.540Z,94.50
2019-03-27T02:01:08.135Z,94.50
2019-03-27T02:03:38.149Z,94.50
2019-03-27T02:06:07.678Z,94.60
2019-03-27T02:08:37.944Z,94.60
2019-03-27T02:11:07.506Z,94.60
2019-03-27T02:13:37.015Z,94.70
2019-03-27T02:16:07.492Z,94.70
2019-03-27T02:18:37.444Z,94.70
2019-03-27T02:21:07.375Z,94.70
2019-03-27T02:23:36.968Z,94.90
2019-03-27T02:26:06.800Z,95.00
2019-03-27T02:28:36.688Z,95.00
2019-03-27T02:31:06.280Z,95.10
2019-03-27T02:33:36.433Z,95.30
2019-03-27T02:36:06.141Z,95.40
2019-03-27T02:38:36.051Z,95.80
2019-03-27T02:41:05.807Z,95.60
2019-03-27T02:43:35.596Z,95.80
2019-03-27T02:46:05.202Z,95.80
2019-03-27T02:48:35.030Z,95.80
2019-03-27T02:51:04.694Z,95.80
2019-03-27T02:53:34.270Z,95.80
2019-03-27T02:56:03.772Z,95.70
2019-03-27T02:58:33.255Z,95.80
2019-03-27T03:01:02.895Z,96.10
2019-03-27T03:03:32.408Z,95.80
2019-03-27T03:06:01.881Z,95.90
2019-03-27T03:08:31.877Z,95.90
2019-03-27T03:11:01.457Z,96.00
2019-03-27T03:13:31.687Z,96.20
2019-03-27T03:16:01.598Z,96.30
2019-03-27T03:18:31.065Z,96.40
2019-03-27T03:21:00.907Z,96.40
2019-03-27T03:23:30.427Z,96.40
2019-03-27T03:26:00.237Z,96.40
2019-03-27T03:28:29.935Z,96.50
2019-03-27T03:30:59.404Z,96.50
2019-03-27T03:33:29.300Z,96.70
2019-03-27T03:35:58.895Z,96.80
2019-03-27T03:38:28.772Z,97.00
2019-03-27T03:40:58.720Z,97.00
2019-03-27T03:43:28.201Z,97.20
2019-03-27T03:45:58.108Z,97.30
2019-03-27T03:48:27.498Z,97.40
2019-03-27T03:50:59.879Z,97.40
2019-03-27T03:53:31.388Z,97.50
2019-03-27T03:56:01.893Z,97.60
2019-03-27T03:58:33.733Z,97.70
2019-03-27T04:01:03.826Z,97.70
2019-03-27T04:03:36.083Z,97.70
2019-03-27T04:06:06.052Z,97.80
2019-03-27T04:08:35.589Z,97.90
2019-03-27T04:11:05.696Z,98.00
2019-03-27T04:13:35.173Z,98.10
2019-03-27T04:16:04.823Z,98.20
2019-03-27T04:18:34.440Z,98.30
2019-03-27T04:21:03.987Z,98.40
2019-03-27T04:23:33.889Z,98.50
2019-03-27T04:26:11.009Z,98.70
2019-03-27T04:28:34.880Z,98.90
2019-03-27T04:31:04.444Z,99.00
2019-03-27T04:33:34.363Z,99.10
2019-03-27T04:36:03.863Z,99.30
2019-03-27T04:38:33.864Z,99.40
2019-03-27T04:41:03.771Z,99.50
2019-03-27T04:43:33.630Z,99.60
2019-03-27T04:46:03.186Z,99.80
2019-03-27T04:48:32.640Z,99.90
2019-03-27T04:51:02.181Z,99.90
2019-03-27T04:53:32.353Z,99.90
2019-03-27T04:56:01.925Z,99.90
2019-03-27T04:58:31.969Z,99.90
2019-03-27T05:01:01.606Z,99.90
2019-03-27T05:03:31.484Z,99.90
2019-03-27T05:06:01.001Z,99.90
2019-03-27T05:08:30.432Z,99.90
2019-03-27T05:10:59.972Z,99.90
2019-03-27T05:13:29.639Z,99.90
2019-03-27T05:15:59.476Z,99.90
2019-03-27T05:18:29.700Z,99.90
2019-03-27T05:20:59.790Z,99.90
2019-03-27T05:23:29.455Z,99.90
2019-03-27T05:25:59.050Z,99.90
2019-03-27T05:28:28.908Z,99.90
2019-03-27T05:30:58.710Z,99.90
2019-03-27T05:33:28.247Z,99.90
2019-03-27T05:35:57.834Z,99.90
2019-03-27T05:38:27.359Z,99.90
2019-03-27T05:40:56.966Z,99.90
2019-03-27T05:43:27.109Z,99.90
2019-03-27T05:45:57.128Z,99.90
2019-03-27T05:48:26.939Z,99.90
2019-03-27T05:50:57.085Z,99.90
2019-03-27T05:53:26.984Z,99.90
2019-03-27T05:55:56.511Z,99.90
2019-03-27T05:58:26.394Z,99.90
2019-03-27T06:00:55.896Z,99.90
2019-03-27T06:03:26.005Z,99.90
2019-03-27T06:05:55.543Z,99.90
2019-03-27T06:08:25.162Z,99.90
2019-03-27T06:10:55.035Z,99.90
2019-03-27T06:13:24.636Z,99.90
2019-03-27T06:15:54.909Z,99.90
2019-03-27T06:18:24.595Z,99.90
2019-03-27T06:20:54.300Z,99.90
2019-03-27T06:23:24.095Z,99.90
2019-03-27T06:25:53.608Z,99.90
2019-03-27T06:28:23.198Z,99.90
2019-03-27T06:30:53.046Z,99.90
2019-03-27T06:33:22.625Z,99.90
2019-03-27T06:35:52.976Z,99.90
2019-03-27T06:38:23.077Z,99.90
2019-03-27T06:40:52.721Z,99.90
2019-03-27T06:43:22.498Z,99.90
2019-03-27T06:45:52.329Z,99.90
2019-03-27T06:48:26.510Z,99.90
2019-03-27T06:50:53.399Z,99.90
2019-03-27T06:53:22.924Z,99.90
2019-03-27T06:55:52.353Z,99.90
2019-03-27T06:58:21.886Z,99.90
2019-03-27T07:00:51.769Z,99.90
2019-03-27T07:03:21.344Z,99.90
2019-03-27T07:05:51.030Z,99.90
2019-03-27T07:08:20.639Z,99.90
2019-03-27T07:10:50.334Z,99.90
2019-03-27T07:13:19.912Z,99.90
2019-03-27T07:15:49.849Z,99.90
2019-03-27T07:18:19.441Z,99.90
2019-03-27T07:20:49.490Z,99.90
2019-03-27T07:23:19.597Z,99.90
2019-03-27T07:25:49.145Z,99.90
2019-03-27T07:28:19.525Z,99.90
2019-03-27T07:30:49.075Z,99.90
2019-03-27T07:33:18.598Z,99.90
2019-03-27T07:35:48.382Z,99.90
2019-03-27T07:38:18.006Z,99.90
2019-03-27T07:40:48.386Z,99.90
2019-03-27T07:43:31.052Z,99.70
2019-03-27T07:46:01.281Z,99.90
2019-03-27T07:48:30.940Z,99.90
2019-03-27T07:51:00.924Z,99.90
2019-03-27T07:53:30.791Z,99.60
2019-03-27T07:56:00.781Z,99.70
2019-03-27T07:58:30.800Z,99.60
2019-03-27T08:01:00.801Z,99.10
2019-03-27T08:03:30.407Z,98.90
2019-03-27T08:06:00.507Z,98.80
2019-03-27T08:08:30.386Z,98.60
2019-03-27T08:10:59.913Z,98.50
2019-03-27T08:13:29.504Z,98.20
2019-03-27T08:16:00.634Z,97.10
2019-03-27T08:18:30.275Z,96.40
2019-03-27T08:21:00.353Z,96.10
2019-03-27T08:23:30.151Z,95.80
2019-03-27T08:26:00.001Z,96.00
2019-03-27T08:28:29.573Z,96.20
2019-03-27T08:31:02.058Z,96.20
2019-03-27T08:33:32.243Z,96.60
2019-03-27T08:36:02.886Z,96.70
2019-03-27T08:38:34.359Z,96.80
2019-03-27T08:41:08.143Z,96.70
2019-03-27T08:43:39.092Z,96.90
2019-03-27T08:46:12.655Z,97.40
2019-03-27T08:48:49.740Z,97.30
2019-03-27T08:51:19.648Z,97.10
2019-03-27T08:54:06.692Z,97.00
2019-03-27T08:56:43.579Z,96.70
2019-03-27T08:59:15.225Z,96.30
2019-03-27T09:01:45.589Z,95.80
2019-03-27T09:04:16.418Z,95.30
2019-03-27T09:06:46.166Z,94.40
2019-03-27T09:09:15.887Z,93.60
2019-03-27T09:11:46.121Z,92.40
2019-03-27T09:14:15.710Z,92.00
2019-03-27T09:16:45.716Z,91.40
2019-03-27T09:19:15.932Z,90.60
2019-03-27T09:21:46.277Z,90.40
2019-03-27T09:24:19.063Z,90.70
2019-03-27T09:26:48.683Z,90.50
2019-03-27T09:29:18.714Z,90.70
2019-03-27T09:31:48.525Z,91.10
2019-03-27T09:34:18.232Z,91.60
2019-03-27T09:36:47.839Z,92.20
2019-03-27T09:39:18.522Z,91.90
2019-03-27T09:41:48.204Z,92.10
2019-03-27T09:44:18.027Z,92.10
2019-03-27T09:46:48.166Z,91.50
2019-03-27T09:49:19.565Z,91.50
2019-03-27T09:51:49.449Z,91.60
2019-03-27T09:54:20.145Z,91.60
2019-03-27T09:56:50.068Z,91.30
2019-03-27T09:59:19.958Z,90.90
2019-03-27T10:01:49.801Z,89.10
2019-03-27T10:04:19.822Z,87.80
2019-03-27T10:06:49.437Z,86.00
2019-03-27T10:09:18.985Z,85.70
2019-03-27T10:11:48.938Z,84.30
2019-03-27T10:14:18.650Z,84.50
2019-03-27T10:16:49.052Z,84.50
2019-03-27T10:19:19.105Z,83.80
2019-03-27T10:21:49.165Z,83.30
2019-03-27T10:24:22.074Z,81.90
2019-03-27T10:26:51.696Z,80.60
2019-03-27T10:29:21.319Z,79.70
2019-03-27T10:31:51.343Z,79.40
2019-03-27T10:34:21.043Z,79.80
2019-03-27T10:36:51.054Z,80.50
2019-03-27T10:39:21.242Z,82.00
2019-03-27T10:41:51.228Z,81.50
2019-03-27T10:44:21.619Z,81.90
2019-03-27T10:46:51.551Z,80.20
2019-03-27T10:49:21.243Z,80.10
2019-03-27T10:51:52.254Z,79.90
2019-03-27T10:54:22.606Z,77.60
2019-03-27T10:56:52.430Z,75.40
2019-03-27T10:59:22.226Z,74.90
2019-03-27T11:01:52.083Z,73.70
2019-03-27T11:04:21.740Z,72.70
2019-03-27T11:06:51.424Z,70.00
2019-03-27T11:09:21.476Z,71.90
2019-03-27T11:11:51.241Z,72.70
2019-03-27T11:14:21.021Z,73.10
2019-03-27T11:16:51.058Z,72.70
2019-03-27T11:19:20.938Z,70.60
2019-03-27T11:21:50.682Z,68.90
2019-03-27T11:24:20.894Z,69.70
2019-03-27T11:26:51.338Z,69.30
2019-03-27T11:29:21.182Z,69.30
2019-03-27T11:31:50.881Z,68.00
2019-03-27T11:34:21.150Z,67.10
2019-03-27T11:36:51.004Z,69.40
2019-03-27T11:39:21.068Z,70.80
2019-03-27T11:41:51.021Z,70.80
2019-03-27T11:44:21.348Z,69.90
2019-03-27T11:46:51.536Z,69.70
2019-03-27T11:49:21.410Z,69.40
2019-03-27T11:51:51.658Z,70.60
2019-03-27T11:54:21.792Z,71.10
2019-03-27T11:56:52.936Z,70.30
2019-03-27T11:59:22.930Z,68.80
2019-03-27T12:01:52.850Z,67.70
2019-03-27T12:04:23.057Z,66.40
2019-03-27T12:06:52.766Z,66.20
2019-03-27T12:09:22.491Z,65.70
2019-03-27T12:11:52.314Z,65.80
2019-03-27T12:14:21.994Z,66.30
2019-03-27T12:16:51.917Z,66.10
2019-03-27T12:19:21.443Z,66.30
2019-03-27T12:21:54.445Z,65.50
2019-03-27T12:24:23.324Z,66.40
2019-03-27T12:26:53.566Z,66.30
2019-03-27T12:29:23.972Z,65.60
2019-03-27T12:31:53.569Z,65.90
2019-03-27T12:34:23.213Z,67.40
2019-03-27T12:36:53.064Z,68.30
2019-03-27T12:39:22.776Z,68.50
2019-03-27T12:41:53.048Z,67.80
2019-03-27T12:44:23.004Z,66.30
2019-03-27T12:46:53.297Z,66.80
2019-03-27T12:49:22.917Z,64.70
2019-03-27T12:51:52.558Z,63.10
2019-03-27T12:54:22.313Z,63.50
2019-03-27T12:56:52.576Z,64.00
2019-03-27T12:59:22.709Z,63.20
2019-03-27T13:01:52.315Z,63.60
2019-03-27T13:04:21.888Z,62.30
2019-03-27T13:06:51.437Z,62.00
2019-03-27T13:09:21.351Z,61.90
2019-03-27T13:11:50.926Z,61.50
2019-03-27T13:14:35.298Z,61.60
2019-03-27T13:17:05.287Z,61.60
2019-03-27T13:19:35.116Z,60.40
2019-03-27T13:22:05.206Z,60.50
2019-03-27T13:24:35.078Z,62.40
2019-03-27T13:27:04.630Z,61.80
2019-03-27T13:29:34.548Z,62.40
2019-03-27T13:32:04.838Z,62.70
2019-03-27T13:34:34.896Z,63.30
2019-03-27T13:37:04.604Z,63.90
2019-03-27T13:39:34.190Z,63.60
2019-03-27T13:42:04.114Z,63.40
2019-03-27T13:44:37.386Z,62.90
2019-03-27T13:47:05.221Z,62.40
2019-03-27T13:49:35.268Z,62.50
2019-03-27T13:52:05.087Z,62.40
2019-03-27T13:54:35.423Z,63.30
2019-03-27T13:57:05.258Z,63.60
2019-03-27T13:59:34.850Z,64.80
2019-03-27T14:02:04.547Z,64.80
2019-03-27T14:04:34.241Z,64.50
2019-03-27T14:07:04.139Z,65.60
2019-03-27T14:09:34.121Z,66.80
2019-03-27T14:12:03.833Z,67.10
2019-03-27T14:14:33.478Z,67.60
2019-03-27T14:17:03.021Z,67.50
2019-03-27T14:19:32.592Z,67.60
2019-03-27T14:22:02.151Z,67.70
2019-03-27T14:24:31.766Z,67.40
2019-03-27T14:27:01.593Z,66.40
2019-03-27T14:29:31.129Z,66.30
2019-03-27T14:32:01.200Z,65.80
2019-03-27T14:34:30.791Z,65.10
2019-03-27T14:37:00.808Z,64.40
2019-03-27T14:39:30.367Z,63.80
2019-03-27T14:41:59.892Z,64.20
2019-03-27T14:44:29.751Z,64.70
2019-03-27T14:46:59.274Z,63.40
2019-03-27T14:49:28.865Z,64.50
2019-03-27T14:52:08.128Z,65.20
2019-03-27T14:54:30.184Z,65.90
2019-03-27T14:57:00.536Z,66.80
2019-03-27T14:59:30.813Z,66.60
2019-03-27T15:02:00.548Z,67.30
2019-03-27T15:04:30.192Z,67.00
2019-03-27T15:06:59.898Z,66.60
2019-03-27T15:09:29.890Z,66.10
2019-03-27T15:11:59.877Z,66.60
2019-03-27T15:14:29.506Z,67.10
2019-03-27T15:16:59.266Z,66.90
2019-03-27T15:19:28.762Z,66.70
2019-03-27T15:21:58.422Z,66.50
2019-03-27T15:24:28.279Z,66.40
2019-03-27T15:26:58.173Z,66.60
2019-03-27T15:29:27.981Z,66.60
2019-03-27T15:31:58.094Z,66.90
2019-03-27T15:34:27.759Z,66.90
2019-03-27T15:36:57.422Z,66.90
2019-03-27T15:39:27.054Z,67.90
2019-03-27T15:41:56.870Z,67.60
2019-03-27T15:44:26.496Z,67.00
2019-03-27T15:46:56.309Z,67.70
2019-03-27T15:49:26.225Z,67.90
2019-03-27T15:51:56.150Z,67.30
2019-03-27T15:54:25.936Z,67.00
2019-03-27T15:56:55.562Z,66.40
2019-03-27T15:59:25.091Z,66.30
2019-03-27T16:01:57.766Z,66.50
2019-03-27T16:04:26.358Z,66.60
2019-03-27T16:06:56.418Z,66.20
2019-03-27T16:09:25.963Z,66.20
2019-03-27T16:11:55.477Z,65.80
2019-03-27T16:14:25.070Z,66.00
2019-03-27T16:17:11.925Z,66.10
2019-03-27T16:19:27.022Z,66.30
2019-03-27T16:21:57.323Z,66.40
2019-03-27T16:24:27.158Z,67.00
2019-03-27T16:27:04.455Z,66.90
2019-03-27T16:29:28.711Z,67.30
2019-03-27T16:31:58.766Z,67.70
2019-03-27T16:34:28.780Z,67.80
2019-03-27T16:36:58.543Z,68.10
2019-03-27T16:39:28.417Z,68.50
2019-03-27T16:41:58.131Z,68.50
2019-03-27T16:44:28.130Z,68.40
2019-03-27T16:46:57.668Z,69.00
2019-03-27T16:49:27.531Z,68.90
2019-03-27T16:51:57.052Z,69.30
2019-03-27T16:54:26.883Z,69.30
2019-03-27T16:56:56.595Z,69.30
2019-03-27T16:59:26.239Z,69.40
2019-03-27T17:01:55.902Z,69.60
2019-03-27T17:04:25.533Z,69.40
2019-03-27T17:06:55.058Z,70.10
2019-03-27T17:09:24.645Z,70.70
2019-03-27T17:11:54.532Z,71.20
2019-03-27T17:14:24.209Z,71.80
2019-03-27T17:16:53.885Z,72.30
2019-03-27T17:19:23.417Z,72.90
2019-03-27T17:21:53.062Z,73.30
2019-03-27T17:24:22.594Z,73.40
2019-03-27T17:26:52.371Z,73.60
2019-03-27T17:29:22.482Z,74.10
2019-03-27T17:31:52.991Z,74.40
2019-03-27T17:34:22.785Z,74.60
2019-03-27T17:36:53.025Z,74.80
2019-03-27T17:39:22.699Z,75.00
2019-03-27T17:41:52.635Z,75.20
2019-03-27T17:44:22.430Z,75.50
2019-03-27T17:46:52.042Z,75.70
2019-03-27T17:49:22.036Z,75.90
2019-03-27T17:51:51.603Z,76.10
2019-03-27T17:54:21.547Z,76.30
2019-03-27T17:56:51.111Z,76.60
2019-03-27T17:59:20.747Z,76.70
2019-03-27T18:01:50.463Z,76.90
2019-03-27T18:04:21.047Z,77.20
2019-03-27T18:06:50.696Z,77.30
2019-03-27T18:09:20.639Z,77.60
2019-03-27T18:11:51.081Z,77.70
2019-03-27T18:14:21.828Z,78.10
2019-03-27T18:16:51.451Z,78.40
2019-03-27T18:19:21.335Z,78.70
2019-03-27T18:21:50.916Z,78.90
2019-03-27T18:24:21.075Z,79.20
2019-03-27T18:26:50.676Z,79.80
2019-03-27T18:29:21.064Z,80.10
2019-03-27T18:31:50.701Z,80.30
2019-03-27T18:34:20.831Z,80.10
2019-03-27T18:36:50.964Z,80.40
2019-03-27T18:39:20.581Z,80.80
2019-03-27T18:41:50.475Z,80.90
2019-03-27T18:44:20.800Z,81.00
2019-03-27T18:46:50.463Z,81.80
2019-03-27T18:49:20.505Z,81.40
2019-03-27T18:51:50.422Z,81.50
2019-03-27T18:54:23.385Z,82.00
2019-03-27T18:56:51.412Z,82.10
2019-03-27T18:59:20.979Z,82.20
2019-03-27T19:01:50.883Z,82.30
2019-03-27T19:04:20.507Z,82.50
2019-03-27T19:06:50.112Z,82.80
2019-03-27T19:09:19.638Z,83.00
2019-03-27T19:11:49.305Z,83.10
2019-03-27T19:14:19.041Z,83.40
2019-03-27T19:16:48.663Z,83.70
2019-03-27T19:19:18.549Z,83.80
2019-03-27T19:21:48.755Z,83.90
2019-03-27T19:24:18.438Z,83.90
2019-03-27T19:26:48.744Z,83.90
2019-03-27T19:29:18.649Z,83.90
2019-03-27T19:31:48.706Z,84.00
2019-03-27T19:34:18.648Z,84.00
2019-03-27T19:36:48.572Z,84.10
2019-03-27T19:39:18.176Z,84.30
2019-03-27T19:41:48.255Z,84.40
2019-03-27T19:44:17.992Z,84.50
2019-03-27T19:46:47.850Z,84.40
2019-03-27T19:49:17.474Z,84.60
2019-03-27T19:51:47.881Z,84.70
2019-03-27T19:54:27.105Z,84.70
2019-03-27T19:56:48.882Z,84.70
2019-03-27T19:59:18.428Z,84.70
2019-03-27T20:01:47.948Z,84.70
2019-03-27T20:04:17.570Z,84.80
2019-03-27T20:06:47.281Z,84.80
2019-03-27T20:09:17.581Z,84.90
2019-03-27T20:11:47.140Z,85.00
2019-03-27T20:14:16.892Z,85.10
2019-03-27T20:16:46.500Z,85.50
2019-03-27T20:19:16.844Z,85.50
2019-03-27T20:21:46.783Z,85.70
2019-03-27T20:24:16.478Z,85.60
2019-03-27T20:26:47.283Z,85.70
2019-03-27T20:29:16.825Z,85.70
2019-03-27T20:31:48.564Z,85.90
2019-03-27T20:34:19.196Z,85.90
2019-03-27T20:36:50.767Z,86.00
2019-03-27T20:39:21.223Z,86.20
2019-03-27T20:41:51.099Z,86.40
2019-03-27T20:44:21.563Z,86.60
2019-03-27T20:46:51.143Z,86.60
2019-03-27T20:49:21.173Z,86.80
2019-03-27T20:51:50.835Z,86.90
2019-03-27T20:54:21.491Z,87.00
2019-03-27T20:56:50.983Z,87.20
2019-03-27T20:59:21.264Z,87.30
2019-03-27T21:01:51.291Z,87.40
2019-03-27T21:04:21.584Z,87.60
2019-03-27T21:06:52.117Z,87.80
2019-03-27T21:09:22.199Z,87.90
2019-03-27T21:11:51.874Z,88.00
2019-03-27T21:14:22.128Z,88.50
2019-03-27T21:16:52.306Z,88.50
2019-03-27T21:19:21.892Z,88.60
2019-03-27T21:21:51.634Z,88.80
2019-03-27T21:24:21.616Z,89.00
2019-03-27T21:26:52.287Z,89.20
2019-03-27T21:29:22.740Z,89.40
2019-03-27T21:31:52.785Z,89.60
2019-03-27T21:34:22.338Z,89.40
2019-03-27T21:36:52.540Z,89.50
2019-03-27T21:39:25.770Z,90.00
2019-03-27T21:41:54.416Z,89.40
2019-03-27T21:44:24.520Z,89.50
2019-03-27T21:46:54.348Z,89.30
2019-03-27T21:49:26.485Z,89.40
2019-03-27T21:51:56.200Z,89.30
2019-03-27T21:54:25.659Z,89.30
2019-03-27T21:56:55.288Z,89.30
2019-03-27T21:59:25.188Z,89.30
2019-03-27T22:01:55.420Z,89.40
2019-03-27T22:04:25.400Z,89.50
2019-03-27T22:06:55.210Z,89.50
2019-03-27T22:09:25.387Z,89.50
2019-03-27T22:11:55.198Z,89.70
2019-03-27T22:14:24.739Z,89.70
2019-03-27T22:16:54.831Z,89.90
2019-03-27T22:19:24.573Z,90.00
2019-03-27T22:21:54.608Z,90.00
2019-03-27T22:24:24.619Z,90.00
2019-03-27T22:26:54.174Z,90.00
2019-03-27T22:29:23.868Z,90.00
2019-03-27T22:31:53.519Z,90.10
2019-03-27T22:34:23.515Z,90.10
2019-03-27T22:36:53.414Z,90.20
2019-03-27T22:39:22.980Z,90.20
2019-03-27T22:41:52.612Z,90.40
2019-03-27T22:44:22.376Z,90.40
2019-03-27T22:46:51.998Z,90.50
2019-03-27T22:49:21.976Z,90.60
2019-03-27T22:51:51.767Z,90.70
2019-03-27T22:54:21.591Z,90.70
2019-03-27T22:56:51.682Z,90.80
2019-03-27T22:59:22.002Z,90.80
2019-03-27T23:01:51.853Z,90.80
2019-03-27T23:04:22.194Z,90.90
2019-03-27T23:06:51.738Z,91.00
2019-03-27T23:09:21.364Z,91.00
2019-03-27T23:11:51.602Z,91.10
2019-03-27T23:14:21.211Z,91.20
2019-03-27T23:16:50.748Z,91.20
2019-03-27T23:19:21.014Z,91.10
2019-03-27T23:21:50.622Z,91.40
2019-03-27T23:24:20.205Z,91.10
2019-03-27T23:26:49.830Z,91.10
2019-03-27T23:29:19.596Z,91.10
2019-03-27T23:31:49.091Z,91.20
2019-03-27T23:34:18.726Z,91.20
2019-03-27T23:36:48.306Z,91.30
2019-03-27T23:39:17.886Z,91.40
2019-03-27T23:41:47.424Z,91.70
2019-03-27T23:44:16.970Z,91.40
2019-03-27T23:46:46.809Z,91.40
2019-03-27T23:49:19.318Z,91.40
2019-03-27T23:51:52.061Z,91.40
2019-03-27T23:54:21.731Z,91.40
2019-03-27T23:56:51.359Z,91.40
2019-03-27T23:59:20.891Z,91.50
